Bonaire, Bonaire

8:06 PM AST on August 30, 2016 (GMT -0400)
Den Chefi | | Change Station

Elev 12 ft 12.15 °N, 68.27 °W | Updated 19 seconds ago

Clear
Clear
83.8 °F
Feels Like 94 °F
N
13.6
Wind Variable Wind from East
Gusts 17.5 mph

Today
High -- | Low -- °F
--% Chance of Precip.
Yesterday
High -- | Low -- °F
Precip. -- in
Pressure 29.89 in
Visibility 6.2 miles
Clouds
Heat Index 94 °F
Dew Point 77 °F
Humidity 81%
Rainfall 0.00 in
Snow Depth Not available.
6:22 AM 6:44 PM
Waning Crescent, 2% visible
METAR TNCB 302355Z AUTO 09019KT 9999 NCD 29/25 Q1012
Pressure 29.89 in
Visibility 6.2 miles
Clouds
Heat Index 94 °F
Dew Point 77 °F
Humidity 81%
Rainfall 0.00 in
Snow Depth Not available.
6:22 AM 6:44 PM
Waning Crescent, 2% visible
METAR TNCB 302355Z AUTO 09019KT 9999 NCD 29/25 Q1012

10-Day Weather Forecast

No radar image for this location.
×

Almanac

Astronomy

Aug. 30, 2016 Rise Set
Actual Time
Civil Twilight
Nautical Twilight
Astronomical Twilight
Moon
Length of Visible Light
Length of Day
Tomorrow will be .
, % of the Moon is Illuminated

Today's Extremes

Country Highs Country Lows

Community

WunderPhotos

Upload Photos

1,935,958 photos uploaded!

WunderBlog® & News

Nearby

Air Quality

  Air Quality AQ Index Pollutant
Not available.

Snow Depth

Station Depth Elevation

Earthquake Activity

City Distance Mag. Time & Date
Minimum magnitude displayed is 2.5.

Coastal Water Temperatures

Place Temperature

Stations

Nearby Weather Stations

Station Location Temp. Windchill Dew Point Humidity Wind Precip. Elev Updated Type